Weather History for Mount Sterling, KY

Change the Weather History Date:

Monday, January 13, 2014

  Actual Average Record
Temperature  
Mean Temperature 48 °F -  
Max Temperature 53 °F 40 °F 64 °F (2013)
Min Temperature 42 °F 22 °F 37 °F (2013)
Degree Days  
Heating Degree Days 18    
Moisture  
Dew Point 39 °F    
Average Humidity 76    
Maximum Humidity 100    
Minimum Humidity 47    
Precipitation  
Precipitation 0.25 in - - ()
Sea Level Pressure  
Sea Level Pressure 29.86 in    
Wind  
Wind Speed 14 mph (SW)    
Max Wind Speed 21 mph    
Max Gust Speed 33 mph    
Visibility 10 miles    
Events Rain    
Averages and records for this station are not official NWS values.
T = Trace of Precipitation, MM = Missing Value Source: NWS Daily Summary

Daily Weather History Graph

Daily Weather History Graph

Search for Another Location

Airport:

Trip Planner

Search our weather history database for the weather conditions in past years. The results will help you decide how hot, cold, wet, or windy it might be!

Date:

Astronomy

Jan. 13, 2014 Rise Set
Actual Time 7:51 AM EST 5:38 PM EST
Civil Twilight 7:22 AM EST 6:07 PM EST
Nautical Twilight 6:50 AM EST 6:39 PM EST
Astronomical Twilight 6:18 AM EST 7:11 PM EST
Moon 3:52 PM EST (1/13) 5:39 AM EST (1/13)
Length of Visible Light 10h 44m
Length of Day
9h 46m
Waxing Gibbous, 95% of the Moon is Illuminated
Jan 13
Waxing Gibbous
Jan 15
Full
Jan 24
Last Quarter
Jan 30
New
Feb 6
First Quarter

Hourly Weather History & Observations

Time (EST) Temp. Windchill Dew Point Humidity Pressure Visibility Wind Dir Wind Speed Gust Speed Precip Events Conditions
12:15 AM 42.8 °F 35.4 °F 32.0 °F 66% 29.97 in 10.0 mi SW 15.0 mph 20.7 mph N/A   Clear
12:35 AM 42.8 °F 36.2 °F 32.0 °F 66% 29.97 in 10.0 mi SW 12.7 mph 19.6 mph N/A   Clear
12:55 AM 42.8 °F 37.0 °F 32.0 °F 66% 29.96 in 10.0 mi SW 10.4 mph 18.4 mph N/A   Clear
1:15 AM 42.8 °F 36.2 °F 32.0 °F 66% 29.95 in 10.0 mi SW 12.7 mph 18.4 mph N/A   Clear
1:35 AM 44.6 °F 37.8 °F 32.0 °F 61% 29.95 in 10.0 mi SW 15.0 mph 20.7 mph N/A   Clear
1:55 AM 44.6 °F 38.4 °F 32.0 °F 61% 29.95 in 10.0 mi SW 12.7 mph 20.7 mph N/A   Clear
2:15 AM 46.4 °F 40.7 °F 32.0 °F 57% 29.96 in 10.0 mi WSW 12.7 mph 18.4 mph N/A   Clear
2:35 AM 44.6 °F 38.4 °F 32.0 °F 61% 29.96 in 10.0 mi WSW 12.7 mph - N/A   Clear
2:55 AM 44.6 °F 38.8 °F 32.0 °F 61% 29.95 in 10.0 mi WSW 11.5 mph 19.6 mph N/A   Clear
3:15 AM 44.6 °F 39.2 °F 32.0 °F 61% 29.95 in 10.0 mi WSW 10.4 mph 18.4 mph N/A   Clear
3:35 AM 46.4 °F 41.5 °F 32.0 °F 57% 29.95 in 10.0 mi WSW 10.4 mph - N/A   Clear
3:55 AM 46.4 °F 40.7 °F 32.0 °F 57% 29.96 in 10.0 mi WSW 12.7 mph - N/A   Clear
4:15 AM 46.4 °F 40.7 °F 32.0 °F 57% 29.95 in 10.0 mi SW 12.7 mph 17.3 mph N/A   Clear
4:35 AM 46.4 °F 40.1 °F 32.0 °F 57% 29.93 in 10.0 mi SW 15.0 mph 23.0 mph N/A   Clear
4:55 AM 46.4 °F 41.5 °F 32.0 °F 57% 29.93 in 10.0 mi WSW 10.4 mph 19.6 mph N/A   Clear
5:15 AM 48.2 °F - 32.0 °F 54% 29.94 in 10.0 mi WSW 12.7 mph 20.7 mph N/A   Clear
5:35 AM 48.2 °F - 32.0 °F 54% 29.93 in 10.0 mi WSW 13.8 mph 23.0 mph N/A   Clear
5:55 AM 48.2 °F - 32.0 °F 54% 29.93 in 10.0 mi SW 15.0 mph 25.3 mph N/A   Clear
6:15 AM 48.2 °F - 32.0 °F 54% 29.93 in 10.0 mi WSW 12.7 mph 19.6 mph N/A   Scattered Clouds
6:35 AM 50.0 °F - 32.0 °F 50% 29.91 in 10.0 mi SW 13.8 mph 21.9 mph N/A   Scattered Clouds
6:55 AM 50.0 °F - 32.0 °F 50% 29.90 in 10.0 mi SW 13.8 mph 24.2 mph N/A   Clear
7:15 AM 48.2 °F - 32.0 °F 54% 29.88 in 10.0 mi SW 15.0 mph 20.7 mph N/A   Scattered Clouds
7:35 AM 48.2 °F - 32.0 °F 54% 29.87 in 10.0 mi SSW 13.8 mph 19.6 mph N/A   Scattered Clouds
7:55 AM 48.2 °F - 32.0 °F 54% 29.87 in 10.0 mi SW 12.7 mph - N/A   Clear
8:15 AM 50.0 °F - 32.0 °F 50% 29.88 in 10.0 mi SW 12.7 mph 21.9 mph N/A   Clear
8:35 AM 50.0 °F - 32.0 °F 50% 29.90 in 10.0 mi SW 13.8 mph 17.3 mph N/A   Clear
8:55 AM 50.0 °F - 32.0 °F 50% 29.90 in 10.0 mi SW 17.3 mph 23.0 mph N/A   Clear
9:15 AM 51.8 °F - 32.0 °F 47% 29.91 in 10.0 mi SW 18.4 mph 25.3 mph N/A   Clear
9:35 AM 51.8 °F - 32.0 °F 47% 29.90 in 10.0 mi WSW 17.3 mph 26.5 mph N/A   Mostly Cloudy
9:55 AM 51.8 °F - 32.0 °F 47% 29.90 in 10.0 mi WSW 16.1 mph 28.8 mph N/A   Overcast
10:15 AM 53.6 °F - 33.8 °F 47% 29.89 in 10.0 mi WSW 15.0 mph 28.8 mph N/A Rain Light Rain
10:35 AM 53.6 °F - 33.8 °F 47% 29.90 in 10.0 mi SW 19.6 mph 28.8 mph N/A   Overcast
10:55 AM 51.8 °F - 35.6 °F 54% 29.89 in 10.0 mi WSW 20.7 mph 33.4 mph N/A   Overcast
11:15 AM 51.8 °F - 35.6 °F 54% 29.89 in 10.0 mi WSW 19.6 mph 29.9 mph N/A   Overcast
11:35 AM 51.8 °F - 37.4 °F 58% 29.88 in 10.0 mi WSW 17.3 mph 26.5 mph N/A Rain Rain
11:55 AM 50.0 °F - 39.2 °F 66% 29.88 in 10.0 mi WSW 17.3 mph 24.2 mph N/A Rain Light Rain
12:15 PM 50.0 °F - 41.0 °F 71% 29.86 in 10.0 mi SW 12.7 mph 23.0 mph N/A   Drizzle
12:35 PM 50.0 °F - 41.0 °F 71% 29.85 in 10.0 mi WSW 18.4 mph 24.2 mph N/A   Light Drizzle
12:55 PM 48.2 °F - 41.0 °F 76% 29.85 in 10.0 mi SW 18.4 mph 26.5 mph N/A Rain Light Rain
1:15 PM 46.4 °F 40.7 °F 42.8 °F 87% 29.84 in 10.0 mi SW 12.7 mph 23.0 mph N/A Rain Light Rain
1:35 PM 46.4 °F 40.1 °F 42.8 °F 87% 29.84 in 10.0 mi SW 15.0 mph 21.9 mph 0.01 in Rain Light Rain
1:55 PM 46.4 °F 39.2 °F 44.6 °F 93% 29.84 in 10.0 mi SW 18.4 mph 23.0 mph 0.02 in Rain Light Rain
2:15 PM 46.4 °F 40.1 °F 44.6 °F 93% 29.83 in 7.0 mi SSW 15.0 mph 18.4 mph 0.02 in Rain Light Rain
2:35 PM 46.4 °F 41.5 °F 44.6 °F 93% 29.82 in 7.0 mi SSW 10.4 mph 18.4 mph 0.04 in Rain Rain
2:55 PM 46.4 °F 40.7 °F 44.6 °F 93% 29.81 in 10.0 mi SSW 12.7 mph - 0.06 in Rain Light Rain
3:15 PM 46.4 °F 40.7 °F 44.6 °F 93% 29.80 in 10.0 mi SSW 12.7 mph 19.6 mph 0.01 in Rain Light Rain
3:35 PM 46.4 °F 40.4 °F 46.4 °F 100% 29.80 in 10.0 mi SSW 13.8 mph - 0.02 in Rain Light Rain
3:55 PM 46.4 °F 40.7 °F 46.4 °F 100% 29.80 in 10.0 mi SSW 12.7 mph - 0.04 in Rain Light Rain
4:15 PM 46.4 °F 40.7 °F 46.4 °F 100% 29.80 in 10.0 mi SSW 12.7 mph - 0.01 in Rain Light Rain
4:35 PM 46.4 °F 40.1 °F 46.4 °F 100% 29.80 in 10.0 mi SSW 15.0 mph - 0.03 in Rain Light Rain
4:55 PM 46.4 °F 41.1 °F 46.4 °F 100% 29.80 in 7.0 mi SW 11.5 mph 19.6 mph 0.06 in Rain Rain
5:15 PM 46.4 °F 41.5 °F 46.4 °F 100% 29.80 in 7.0 mi SW 10.4 mph - 0.02 in Rain Light Rain
5:35 PM 46.4 °F 41.5 °F 46.4 °F 100% 29.79 in 10.0 mi SSW 10.4 mph - 0.05 in Rain Light Rain
5:55 PM 46.4 °F 40.7 °F 46.4 °F 100% 29.79 in 7.0 mi SSW 12.7 mph 19.6 mph 0.06 in Rain Light Rain
6:15 PM 46.4 °F 40.7 °F 46.4 °F 100% 29.78 in 7.0 mi SSW 12.7 mph - 0.01 in Rain Light Rain
6:35 PM 46.4 °F 40.1 °F 46.4 °F 100% 29.79 in 10.0 mi SW 15.0 mph - 0.01 in Rain Rain
6:55 PM 46.4 °F 40.4 °F 46.4 °F 100% 29.79 in 10.0 mi SSW 13.8 mph - 0.01 in Rain Light Rain
7:15 PM 46.4 °F 40.4 °F 46.4 °F 100% 29.79 in 10.0 mi SSW 13.8 mph 18.4 mph N/A Rain Light Rain
7:35 PM 46.4 °F 40.7 °F 46.4 °F 100% 29.79 in 10.0 mi SW 12.7 mph 19.6 mph N/A Rain Rain
7:55 PM 46.4 °F 41.1 °F 44.6 °F 93% 29.80 in 10.0 mi WSW 11.5 mph 20.7 mph N/A   Light Drizzle
8:15 PM 44.6 °F 38.8 °F 44.6 °F 100% 29.80 in 10.0 mi SW 11.5 mph 23.0 mph N/A Rain Light Rain
8:35 PM 44.6 °F 38.1 °F 44.6 °F 100% 29.80 in 10.0 mi WSW 13.8 mph 20.7 mph N/A Rain Light Rain
8:55 PM 44.6 °F 39.2 °F 44.6 °F 100% 29.79 in 10.0 mi SW 10.4 mph 21.9 mph N/A   Drizzle
9:15 PM 44.6 °F 39.2 °F 44.6 °F 100% 29.79 in 10.0 mi SW 10.4 mph 21.9 mph N/A   Overcast
9:35 PM 44.6 °F 38.8 °F 44.6 °F 100% 29.79 in 10.0 mi SW 11.5 mph 19.6 mph N/A   Overcast
9:55 PM 44.6 °F 39.2 °F 44.6 °F 100% 29.79 in 10.0 mi WSW 10.4 mph 17.3 mph N/A   Overcast
10:15 PM 44.6 °F 38.8 °F 44.6 °F 100% 29.79 in 10.0 mi SW 11.5 mph 17.3 mph N/A   Overcast
10:35 PM 44.6 °F 38.8 °F 44.6 °F 100% 29.79 in 10.0 mi WSW 11.5 mph 17.3 mph N/A   Overcast
10:55 PM 44.6 °F 38.8 °F 44.6 °F 100% 29.79 in 10.0 mi WSW 11.5 mph 19.6 mph N/A   Drizzle
11:15 PM 44.6 °F 38.4 °F 44.6 °F 100% 29.79 in 10.0 mi WSW 12.7 mph 19.6 mph N/A Rain Light Rain
11:35 PM 44.6 °F 39.7 °F 44.6 °F 100% 29.80 in 5.0 mi West 9.2 mph 18.4 mph N/A Rain Light Rain
11:55 PM 44.6 °F 40.2 °F 44.6 °F 100% 29.80 in 3.0 mi West 8.1 mph 16.1 mph N/A Rain Light Rain